Time;durP1;ratioP1;P1;durP2;ratioP2;P2;SDS_P1;SDS_P2;PMS_P1;PMS_P2;Temp;Humidity;BMP_temperature;BMP_pressure;BME280_temperature;BME280_humidity;BME280_pressure;Samples;Min_cycle;Max_cycle;Signal;HPM_P1;HPM_P2
2022/04/01 00:00:22;;;;;;;;;;;10.60;92.10;;;;;;5053988;28;19908;-89
2022/04/01 00:02:48;;;;;;;;;;;10.60;92.10;;;;;;5053738;28;20338;-90
2022/04/01 00:05:14;;;;;;;;;;;10.60;92.20;;;;;;5054031;28;19928;-90
2022/04/01 00:07:40;;;;;;;;;;;10.60;92.30;;;;;;5053821;28;20321;-90
2022/04/01 00:10:06;;;;;;;;;;;10.60;92.40;;;;;;5052468;28;20278;-89
2022/04/01 00:12:31;;;;;;;;;;;10.60;92.50;;;;;;5053272;28;19947;-90
2022/04/01 00:14:57;;;;;;;;;;;10.60;92.50;;;;;;5054136;28;19917;-89
2022/04/01 00:17:23;;;;;;;;;;;10.60;92.40;;;;;;5073638;28;19912;-90
2022/04/01 00:19:48;;;;;;;;;;;10.60;92.50;;;;;;5073576;28;19909;-90
2022/04/01 00:22:14;;;;;;;;;;;10.70;92.50;;;;;;5073864;28;20349;-90
2022/04/01 00:24:40;;;;;;;;;;;10.70;92.50;;;;;;5073423;28;19961;-90
2022/04/01 00:27:05;;;;;;;;;;;10.70;92.50;;;;;;5055360;28;19909;-90
2022/04/01 00:29:31;;;;;;;;;;;10.60;92.60;;;;;;5053461;28;19913;-90
2022/04/01 00:32:00;;;;;;;;;;;10.60;92.50;;;;;;5053370;28;19916;-90
2022/04/01 00:34:26;;;;;;;;;;;10.70;92.40;;;;;;5053686;28;19908;-89
2022/04/01 00:36:52;;;;;;;;;;;10.60;92.30;;;;;;5069302;28;19912;-89
2022/04/01 00:39:19;;;;;;;;;;;10.60;92.20;;;;;;5073344;28;19917;-90
2022/04/01 00:41:45;;;;;;;;;;;10.60;92.10;;;;;;5073611;28;19916;-89
2022/04/01 00:44:14;;;;;;;;;;;10.60;92.00;;;;;;5073142;28;20280;-89
2022/04/01 00:46:40;;;;;;;;;;;10.60;91.90;;;;;;5058745;28;19908;-90
2022/04/01 00:49:06;;;;;;;;;;;10.60;92.00;;;;;;5053470;28;19912;-90
2022/04/01 00:51:32;;;;;;;;;;;10.60;92.00;;;;;;5053117;28;19954;-90
2022/04/01 00:53:58;;;;;;;;;;;10.60;92.10;;;;;;5053165;28;19920;-90
2022/04/01 00:56:28;;;;;;;;;;;10.60;92.00;;;;;;5064991;28;19961;-90
2022/04/01 00:58:54;;;;;;;;;;;10.60;92.10;;;;;;5073133;28;20423;-90
2022/04/01 01:01:19;;;;;;;;;;;10.60;92.10;;;;;;5073083;28;19991;-90
2022/04/01 01:03:45;;;;;;;;;;;10.60;92.10;;;;;;5071047;22;20298;-91
2022/04/01 01:06:11;;;;;;;;;;;10.60;92.30;;;;;;5063063;28;20358;-90
2022/04/01 01:08:37;;;;;;;;;;;10.70;92.30;;;;;;5072930;28;19909;-90
2022/04/01 01:11:02;;;;;;;;;;;10.70;92.20;;;;;;5073279;28;20341;-90
2022/04/01 01:13:29;;;;;;;;;;;10.80;92.20;;;;;;5072965;28;19922;-90
2022/04/01 01:15:54;;;;;;;;;;;10.80;92.10;;;;;;5073262;28;19913;-90
2022/04/01 01:18:21;;;;;;;;;;;10.90;92.10;;;;;;5062565;28;19995;-90
2022/04/01 01:20:47;;;;;;;;;;;10.90;92.00;;;;;;5052825;28;19944;-90
2022/04/01 01:23:13;;;;;;;;;;;11.00;91.70;;;;;;5053005;28;19909;-90
2022/04/01 01:25:38;;;;;;;;;;;11.00;91.50;;;;;;5054585;28;19960;-90
2022/04/01 01:28:04;;;;;;;;;;;11.00;91.40;;;;;;5056853;28;19912;-90
2022/04/01 01:30:30;;;;;;;;;;;11.10;91.20;;;;;;5056690;28;19996;-89
2022/04/01 01:32:56;;;;;;;;;;;11.10;91.10;;;;;;5072171;28;20363;-90
2022/04/01 01:35:22;;;;;;;;;;;11.10;90.90;;;;;;5076708;28;19957;-90
2022/04/01 01:37:47;;;;;;;;;;;11.10;90.90;;;;;;5076733;28;19961;-89
2022/04/01 01:40:13;;;;;;;;;;;11.10;90.90;;;;;;5074950;28;20401;-90
2022/04/01 01:42:39;;;;;;;;;;;11.10;90.90;;;;;;5076592;28;19971;-90
2022/04/01 01:45:05;;;;;;;;;;;11.10;90.90;;;;;;5076737;28;20277;-90
2022/04/01 01:47:31;;;;;;;;;;;11.10;90.80;;;;;;5072658;28;19916;-90
2022/04/01 01:55:27;;;;;;;;;;;11.10;90.90;;;;;;5056675;28;19916;-90
2022/04/01 01:57:53;;;;;;;;;;;11.10;91.00;;;;;;5056311;28;19909;-89
2022/04/01 02:00:22;;;;;;;;;;;11.10;91.00;;;;;;5056284;28;20281;-89
2022/04/01 02:02:50;;;;;;;;;;;11.10;90.90;;;;;;5056294;28;19988;-90
2022/04/01 02:05:16;;;;;;;;;;;11.10;90.90;;;;;;5056060;28;20359;-90
2022/04/01 02:07:47;;;;;;;;;;;11.10;90.70;;;;;;5056050;28;20007;-89
2022/04/01 02:10:15;;;;;;;;;;;11.10;90.60;;;;;;5055989;28;19968;-90
2022/04/01 02:12:42;;;;;;;;;;;11.10;90.70;;;;;;5054697;28;19909;-89
2022/04/01 02:15:10;;;;;;;;;;;11.10;90.70;;;;;;5055967;28;19920;-90
2022/04/01 02:17:40;;;;;;;;;;;11.10;90.70;;;;;;5055847;28;20359;-90
2022/04/01 02:20:09;;;;;;;;;;;11.10;90.70;;;;;;5055727;28;19916;-90
2022/04/01 02:22:35;;;;;;;;;;;11.10;90.50;;;;;;5056083;28;19992;-89
2022/04/01 02:25:03;;;;;;;;;;;11.10;90.50;;;;;;5057103;28;19971;-90
2022/04/01 02:27:29;;;;;;;;;;;11.10;90.50;;;;;;5075758;28;19916;-90
2022/04/01 02:29:54;;;;;;;;;;;11.00;90.60;;;;;;5075689;28;19908;-90
2022/04/01 02:32:20;;;;;;;;;;;11.00;90.70;;;;;;5075559;28;19958;-90
2022/04/01 02:34:48;;;;;;;;;;;11.00;90.80;;;;;;5075563;28;19908;-90
2022/04/01 02:37:13;;;;;;;;;;;10.90;90.80;;;;;;5075144;28;20488;-90
2022/04/01 02:39:39;;;;;;;;;;;10.90;90.80;;;;;;5075466;28;19995;-90
2022/04/01 02:42:04;;;;;;;;;;;10.90;90.90;;;;;;5075446;28;19915;-90
2022/04/01 02:44:30;;;;;;;;;;;10.90;90.90;;;;;;5075340;28;19912;-90
2022/04/01 02:46:55;;;;;;;;;;;10.90;91.10;;;;;;5074563;28;19944;-90
2022/04/01 02:49:21;;;;;;;;;;;10.90;91.40;;;;;;5055315;28;19960;-89
2022/04/01 02:51:48;;;;;;;;;;;10.90;91.50;;;;;;5055270;28;19908;-90
2022/04/01 02:54:14;;;;;;;;;;;10.90;91.50;;;;;;5053972;28;19916;-90
2022/04/01 02:56:41;;;;;;;;;;;11.00;91.40;;;;;;5055478;28;19975;-90
2022/04/01 02:59:07;;;;;;;;;;;10.90;91.30;;;;;;5055168;28;19908;-90
2022/04/01 03:01:33;;;;;;;;;;;10.90;91.40;;;;;;5055058;28;19916;-90
2022/04/01 03:03:59;;;;;;;;;;;10.80;91.40;;;;;;5054865;28;20007;-90
2022/04/01 03:06:24;;;;;;;;;;;10.70;91.60;;;;;;5055010;28;20012;-90
2022/04/01 03:08:50;;;;;;;;;;;10.70;91.70;;;;;;5054865;28;20003;-90
2022/04/01 03:11:16;;;;;;;;;;;10.70;92.00;;;;;;5058333;28;19912;-89
2022/04/01 03:13:42;;;;;;;;;;;10.80;91.90;;;;;;5074589;28;20134;-89
2022/04/01 03:16:08;;;;;;;;;;;10.70;91.70;;;;;;5075133;28;20468;-89
2022/04/01 03:18:39;;;;;;;;;;;10.70;91.80;;;;;;5075072;28;19915;-89
2022/04/01 03:21:04;;;;;;;;;;;10.70;91.90;;;;;;5074746;28;19915;-89
2022/04/01 03:23:30;;;;;;;;;;;10.70;92.10;;;;;;5074600;28;19913;-89
2022/04/01 03:25:56;;;;;;;;;;;10.60;92.10;;;;;;5074672;28;19908;-90
2022/04/01 03:28:21;;;;;;;;;;;10.60;92.20;;;;;;5074593;28;19931;-90
2022/04/01 03:30:51;;;;;;;;;;;10.60;92.40;;;;;;5074400;28;20286;-89
2022/04/01 03:33:17;;;;;;;;;;;10.60;92.40;;;;;;5074491;28;20432;-89
2022/04/01 03:35:43;;;;;;;;;;;10.60;92.50;;;;;;5074407;28;20385;-88
2022/04/01 03:38:11;;;;;;;;;;;10.50;92.50;;;;;;5061728;28;19913;-89
2022/04/01 03:40:38;;;;;;;;;;;10.50;92.50;;;;;;5054365;28;19915;-89
2022/04/01 03:43:05;;;;;;;;;;;10.40;92.40;;;;;;5054525;28;19935;-89
2022/04/01 03:45:31;;;;;;;;;;;10.40;92.60;;;;;;5054228;28;19909;-89
2022/04/01 03:47:57;;;;;;;;;;;10.40;92.70;;;;;;5053316;28;19909;-89
2022/04/01 03:50:27;;;;;;;;;;;10.40;92.80;;;;;;5054103;28;19913;-89
2022/04/01 03:52:55;;;;;;;;;;;10.40;92.90;;;;;;5054118;28;19909;-89
2022/04/01 03:55:23;;;;;;;;;;;10.40;93.10;;;;;;5054012;28;19931;-88
2022/04/01 03:57:49;;;;;;;;;;;10.40;93.10;;;;;;5053969;28;19961;-89
2022/04/01 04:00:14;;;;;;;;;;;10.40;92.80;;;;;;5053937;28;20312;-89
2022/04/01 04:02:41;;;;;;;;;;;10.40;92.70;;;;;;5053814;28;19931;-88
2022/04/01 04:05:07;;;;;;;;;;;10.30;92.70;;;;;;5060567;28;19917;-88
2022/04/01 04:07:33;;;;;;;;;;;10.20;92.80;;;;;;5073816;28;19916;-89
2022/04/01 04:09:59;;;;;;;;;;;10.20;92.90;;;;;;5073694;28;20023;-89
2022/04/01 04:12:27;;;;;;;;;;;10.20;93.10;;;;;;5073717;28;19908;-89
2022/04/01 04:14:53;;;;;;;;;;;10.20;93.30;;;;;;5073628;28;19915;-88
2022/04/01 04:17:37;;;;;;;;;;;10.30;93.30;;;;;;5073623;28;19912;-88
2022/04/01 04:20:08;;;;;;;;;;;10.30;93.30;;;;;;5073564;28;19909;-89
2022/04/01 04:22:59;;;;;;;;;;;10.20;93.10;;;;;;5073526;28;19995;-89
2022/04/01 04:25:26;;;;;;;;;;;10.10;93.10;;;;;;5049819;28;19912;-88
2022/04/01 04:27:55;;;;;;;;;;;10.00;93.20;;;;;;5073465;28;20358;-89
2022/04/01 04:30:24;;;;;;;;;;;10.00;93.30;;;;;;5072991;28;19908;-89
2022/04/01 04:32:54;;;;;;;;;;;10.00;93.40;;;;;;5072738;28;19909;-89
2022/04/01 04:35:20;;;;;;;;;;;10.00;93.40;;;;;;5061073;28;19913;-88
2022/04/01 04:37:46;;;;;;;;;;;10.10;93.50;;;;;;5053340;28;19908;-89
2022/04/01 04:40:14;;;;;;;;;;;10.10;93.50;;;;;;5053304;28;19909;-88
2022/04/01 04:42:48;;;;;;;;;;;10.10;93.60;;;;;;5053137;28;19908;-89
2022/04/01 04:45:17;;;;;;;;;;;10.10;93.60;;;;;;5053398;28;19913;-88
2022/04/01 04:47:43;;;;;;;;;;;10.10;93.50;;;;;;5053146;28;19912;-88
2022/04/01 04:50:09;;;;;;;;;;;10.10;93.50;;;;;;5053121;28;20003;-89
2022/04/01 04:52:38;;;;;;;;;;;10.00;93.60;;;;;;5053129;28;20020;-89
2022/04/01 05:06:20;;;;;;;;;;;10.00;93.80;;;;;;5084988;27;19958;-89
2022/04/01 05:09:03;;;;;;;;;;;10.00;94.20;;;;;;5073496;28;19913;-89
2022/04/01 05:11:48;;;;;;;;;;;10.00;94.20;;;;;;5070775;28;19932;-89
2022/04/01 05:14:31;;;;;;;;;;;10.00;94.30;;;;;;5066074;28;19909;-88
2022/04/01 05:17:01;;;;;;;;;;;10.10;94.20;;;;;;5061236;28;19913;-88
2022/04/01 05:19:27;;;;;;;;;;;10.10;94.20;;;;;;5090415;28;19908;-89
2022/04/01 05:22:03;;;;;;;;;;;10.10;94.10;;;;;;5084264;28;20046;-88
2022/04/01 05:24:34;;;;;;;;;;;10.20;94.00;;;;;;5071313;28;19956;-88
2022/04/01 05:27:00;;;;;;;;;;;10.20;94.00;;;;;;5069956;28;20000;-88
2022/04/01 05:29:27;;;;;;;;;;;10.20;94.10;;;;;;5090002;28;19915;-89
2022/04/01 05:32:04;;;;;;;;;;;10.20;94.10;;;;;;5086158;28;19974;-88
2022/04/01 05:34:47;;;;;;;;;;;10.20;94.10;;;;;;5081964;28;20009;-88
2022/04/01 05:37:14;;;;;;;;;;;10.30;94.10;;;;;;5066644;28;19913;-89
2022/04/01 05:39:41;;;;;;;;;;;10.40;94.00;;;;;;5069358;28;19983;-88
2022/04/01 05:42:07;;;;;;;;;;;10.40;94.00;;;;;;5083971;28;19955;-88
2022/04/01 05:44:34;;;;;;;;;;;10.40;93.90;;;;;;5078315;28;20423;-88
2022/04/01 05:47:00;;;;;;;;;;;10.40;93.80;;;;;;5071685;28;19921;-88
2022/04/01 05:49:27;;;;;;;;;;;10.40;93.90;;;;;;5074977;28;19913;-89
2022/04/01 05:51:53;;;;;;;;;;;10.50;94.10;;;;;;5070218;28;19916;-88
2022/04/01 05:54:21;;;;;;;;;;;10.60;94.00;;;;;;5072759;28;19920;-88
2022/04/01 05:56:47;;;;;;;;;;;10.80;93.80;;;;;;5073126;28;19935;-88
2022/04/01 05:59:16;;;;;;;;;;;10.80;93.50;;;;;;5073230;28;19912;-88
2022/04/01 06:01:54;;;;;;;;;;;10.80;93.10;;;;;;5069673;28;19952;-88
2022/04/01 06:04:25;;;;;;;;;;;10.80;92.90;;;;;;5075103;28;20390;-88
2022/04/01 06:06:53;;;;;;;;;;;10.80;92.30;;;;;;5071879;28;20356;-88
2022/04/01 06:09:48;;;;;;;;;;;10.70;92.50;;;;;;5106120;28;20366;-88
2022/04/01 06:12:14;;;;;;;;;;;10.70;92.60;;;;;;5033288;28;19932;-88
2022/04/01 06:15:03;;;;;;;;;;;10.70;92.60;;;;;;5075248;28;19912;-88
2022/04/01 06:17:41;;;;;;;;;;;10.70;92.80;;;;;;5055263;28;19912;-88
2022/04/01 06:20:07;;;;;;;;;;;10.80;92.80;;;;;;5058983;28;19916;-88
2022/04/01 06:22:36;;;;;;;;;;;10.80;92.80;;;;;;5055572;28;20015;-88
2022/04/01 06:25:10;;;;;;;;;;;10.90;92.90;;;;;;5054988;28;19916;-88
2022/04/01 06:27:39;;;;;;;;;;;10.90;92.60;;;;;;5052841;28;19917;-88
2022/04/01 06:30:05;;;;;;;;;;;10.90;92.20;;;;;;5056437;28;19921;-88
2022/04/01 06:32:36;;;;;;;;;;;10.90;92.40;;;;;;5057381;28;20387;-88
2022/04/01 06:35:14;;;;;;;;;;;10.80;92.60;;;;;;5057887;28;19960;-88
2022/04/01 06:37:42;;;;;;;;;;;10.90;92.50;;;;;;5053134;28;20266;-88
2022/04/01 06:40:12;;;;;;;;;;;10.90;92.50;;;;;;5054515;28;19996;-88
2022/04/01 06:42:38;;;;;;;;;;;10.90;92.20;;;;;;5057092;28;19939;-88
2022/04/01 06:45:05;;;;;;;;;;;10.90;92.10;;;;;;5051838;28;19970;-88
2022/04/01 06:47:31;;;;;;;;;;;10.80;92.00;;;;;;5055495;28;19913;-88
2022/04/01 06:49:56;;;;;;;;;;;10.90;91.90;;;;;;5054483;28;19919;-88
2022/04/01 06:52:22;;;;;;;;;;;10.90;92.10;;;;;;5055566;28;19948;-88
2022/04/01 06:54:48;;;;;;;;;;;10.90;92.20;;;;;;5056611;28;19913;-88
2022/04/01 06:57:14;;;;;;;;;;;11.00;92.10;;;;;;5054381;28;19913;-88
2022/04/01 06:59:40;;;;;;;;;;;11.10;92.00;;;;;;5055483;28;20003;-88
2022/04/01 07:02:06;;;;;;;;;;;11.10;91.90;;;;;;5057152;28;19995;-88
2022/04/01 07:04:31;;;;;;;;;;;11.30;91.60;;;;;;5055805;28;19925;-88
2022/04/01 07:06:59;;;;;;;;;;;11.30;91.30;;;;;;5057084;28;19964;-88
2022/04/01 07:09:25;;;;;;;;;;;11.40;90.90;;;;;;5056047;28;19913;-88
2022/04/01 07:11:50;;;;;;;;;;;11.50;90.60;;;;;;5053334;28;19913;-88
2022/04/01 07:14:16;;;;;;;;;;;11.60;89.60;;;;;;5055115;28;20336;-88
2022/04/01 07:16:41;;;;;;;;;;;11.50;89.60;;;;;;5054268;28;19982;-87
2022/04/01 07:19:08;;;;;;;;;;;11.40;89.90;;;;;;5054934;28;19913;-87
2022/04/01 07:21:34;;;;;;;;;;;11.40;90.00;;;;;;5056175;28;19912;-88
2022/04/01 07:24:01;;;;;;;;;;;11.40;90.10;;;;;;5067033;28;19935;-88
2022/04/01 07:26:27;;;;;;;;;;;11.40;90.20;;;;;;5056383;28;20008;-88
2022/04/01 07:28:54;;;;;;;;;;;11.40;90.30;;;;;;5056455;28;19990;-88
2022/04/01 07:34:04;;;;;;;;;;;11.60;90.50;;;;;;5061215;28;19959;-88
2022/04/01 07:36:30;;;;;;;;;;;11.60;90.20;;;;;;5060366;28;19956;-89
2022/04/01 07:38:55;;;;;;;;;;;11.60;90.30;;;;;;5056916;28;19913;-88
2022/04/01 07:41:21;;;;;;;;;;;11.70;90.30;;;;;;5053739;28;19912;-89
2022/04/01 07:43:46;;;;;;;;;;;11.80;90.10;;;;;;5062580;28;20277;-89
2022/04/01 07:46:12;;;;;;;;;;;11.90;89.70;;;;;;5071337;28;20293;-89
2022/04/01 07:48:37;;;;;;;;;;;11.90;89.40;;;;;;5051418;28;20305;-88
2022/04/01 07:51:03;;;;;;;;;;;11.90;89.60;;;;;;5053989;28;19913;-88
2022/04/01 07:53:28;;;;;;;;;;;11.90;89.50;;;;;;5055099;28;20262;-88
2022/04/01 07:55:54;;;;;;;;;;;11.90;89.50;;;;;;5057293;28;20290;-88
2022/04/01 07:58:19;;;;;;;;;;;11.90;89.50;;;;;;5054688;28;20269;-88
2022/04/01 08:00:45;;;;;;;;;;;11.90;89.60;;;;;;5058584;28;20065;-88
2022/04/01 08:03:11;;;;;;;;;;;11.90;89.70;;;;;;5052353;28;19931;-88
2022/04/01 08:05:37;;;;;;;;;;;12.00;89.90;;;;;;5055760;28;20407;-88
2022/04/01 08:08:03;;;;;;;;;;;12.00;89.90;;;;;;5069320;28;19927;-88
2022/04/01 08:10:29;;;;;;;;;;;12.10;90.00;;;;;;5055882;28;19917;-88
2022/04/01 08:12:55;;;;;;;;;;;12.30;89.70;;;;;;5056010;28;19913;-88
2022/04/01 08:15:20;;;;;;;;;;;12.40;88.80;;;;;;5052547;28;19912;-88
2022/04/01 08:17:46;;;;;;;;;;;12.50;88.70;;;;;;5056560;28;19917;-88
2022/04/01 08:20:12;;;;;;;;;;;12.70;88.20;;;;;;5052382;28;19913;-88
2022/04/01 08:22:40;;;;;;;;;;;12.90;87.60;;;;;;5053555;28;20387;-88
2022/04/01 08:25:07;;;;;;;;;;;13.00;87.70;;;;;;5056190;28;19927;-88
2022/04/01 08:27:33;;;;;;;;;;;13.10;87.30;;;;;;5057588;28;19974;-88
2022/04/01 08:29:59;;;;;;;;;;;13.30;86.10;;;;;;5050877;28;20347;-88
2022/04/01 08:32:26;;;;;;;;;;;13.20;85.50;;;;;;5060752;28;19912;-88
2022/04/01 08:34:52;;;;;;;;;;;12.90;85.80;;;;;;5053832;28;20023;-88
2022/04/01 08:37:17;;;;;;;;;;;12.80;86.30;;;;;;5061057;28;20417;-88
2022/04/01 08:39:43;;;;;;;;;;;12.60;86.30;;;;;;5055347;28;19913;-88
2022/04/01 08:42:09;;;;;;;;;;;12.50;86.90;;;;;;5055868;28;19917;-88
2022/04/01 08:44:40;;;;;;;;;;;12.50;87.10;;;;;;5048534;28;19916;-88
2022/04/01 08:47:09;;;;;;;;;;;12.70;87.00;;;;;;5046993;28;19964;-88
2022/04/01 08:49:34;;;;;;;;;;;12.80;86.70;;;;;;5056615;28;19923;-88
2022/04/01 08:52:00;;;;;;;;;;;12.90;86.60;;;;;;5058437;28;19913;-88
2022/04/01 08:54:26;;;;;;;;;;;12.90;86.10;;;;;;5064115;28;19913;-89
2022/04/01 08:56:51;;;;;;;;;;;12.90;86.40;;;;;;5057305;28;20022;-88
2022/04/01 08:59:17;;;;;;;;;;;12.90;86.40;;;;;;5054573;28;20386;-89
2022/04/01 09:01:44;;;;;;;;;;;12.80;86.30;;;;;;5059539;28;20274;-89
2022/04/01 09:04:36;;;;;;;;;;;12.80;86.10;;;;;;5060689;28;20446;-89
2022/04/01 09:07:14;;;;;;;;;;;12.70;86.40;;;;;;5050542;28;20393;-89
2022/04/01 09:09:40;;;;;;;;;;;12.70;86.40;;;;;;5058177;28;20469;-89
2022/04/01 09:12:23;;;;;;;;;;;12.70;86.10;;;;;;5114218;27;20373;-89
2022/04/01 09:14:49;;;;;;;;;;;12.60;86.00;;;;;;5094159;28;19930;-88
2022/04/01 09:17:15;;;;;;;;;;;12.50;86.30;;;;;;5095774;28;19961;-88
2022/04/01 09:19:41;;;;;;;;;;;12.40;86.50;;;;;;5090273;28;20362;-88
2022/04/01 09:22:16;;;;;;;;;;;12.20;86.80;;;;;;5087146;28;19932;-88
2022/04/01 09:24:54;;;;;;;;;;;12.20;87.20;;;;;;5092208;28;19973;-88
2022/04/01 09:27:34;;;;;;;;;;;12.20;87.30;;;;;;5095898;28;19965;-88
2022/04/01 09:30:00;;;;;;;;;;;12.20;87.50;;;;;;5096865;28;19920;-88
2022/04/01 09:32:35;;;;;;;;;;;12.30;87.60;;;;;;5095979;28;20007;-88
2022/04/01 09:35:01;;;;;;;;;;;12.40;87.50;;;;;;5102247;28;20025;-89
2022/04/01 09:37:36;;;;;;;;;;;12.50;86.90;;;;;;5097827;28;19916;-88
2022/04/01 09:40:02;;;;;;;;;;;12.50;86.30;;;;;;5094294;28;19912;-88
2022/04/01 09:42:28;;;;;;;;;;;12.70;86.00;;;;;;5089212;28;20413;-88
2022/04/01 09:44:57;;;;;;;;;;;12.60;85.70;;;;;;5094105;28;19912;-88
2022/04/01 09:47:22;;;;;;;;;;;12.70;85.90;;;;;;5090551;28;20011;-88
2022/04/01 09:49:52;;;;;;;;;;;12.80;86.10;;;;;;5090469;28;20007;-88
2022/04/01 09:52:20;;;;;;;;;;;12.90;85.30;;;;;;5092789;28;20365;-89
2022/04/01 09:54:46;;;;;;;;;;;13.00;84.80;;;;;;5101441;28;20174;-88
2022/04/01 09:57:13;;;;;;;;;;;13.10;84.60;;;;;;5091517;28;19919;-88
2022/04/01 09:59:40;;;;;;;;;;;13.30;84.10;;;;;;5096446;28;19965;-88
2022/04/01 10:02:05;;;;;;;;;;;13.30;83.70;;;;;;5095168;28;19942;-88
2022/04/01 10:04:31;;;;;;;;;;;13.40;83.70;;;;;;5087453;28;20475;-89
2022/04/01 10:06:57;;;;;;;;;;;13.60;83.00;;;;;;5087807;28;19961;-89
2022/04/01 10:09:24;;;;;;;;;;;13.70;82.50;;;;;;5089468;28;19939;-88
2022/04/01 10:11:50;;;;;;;;;;;13.90;82.40;;;;;;5088949;28;19989;-89
2022/04/01 10:14:18;;;;;;;;;;;14.10;81.00;;;;;;5089287;28;20374;-88
2022/04/01 10:16:44;;;;;;;;;;;14.30;80.20;;;;;;5089212;28;19909;-89
2022/04/01 10:19:17;;;;;;;;;;;14.40;79.70;;;;;;5085317;28;19916;-89
2022/04/01 10:21:44;;;;;;;;;;;14.50;79.40;;;;;;5067424;28;20055;-89
2022/04/01 10:24:24;;;;;;;;;;;14.80;79.10;;;;;;5055579;28;19913;-89
2022/04/01 10:26:59;;;;;;;;;;;14.80;78.60;;;;;;5055805;28;20367;-88
2022/04/01 10:29:25;;;;;;;;;;;14.90;77.40;;;;;;5055685;28;20385;-89
2022/04/01 10:31:52;;;;;;;;;;;14.90;76.80;;;;;;5055417;28;19913;-88
2022/04/01 10:34:25;;;;;;;;;;;14.60;78.10;;;;;;5055643;28;19935;-88
2022/04/01 10:37:00;;;;;;;;;;;14.40;78.80;;;;;;5055845;28;19932;-88
2022/04/01 10:39:26;;;;;;;;;;;14.10;80.70;;;;;;5055522;28;19909;-88
2022/04/01 10:42:04;;;;;;;;;;;14.00;81.30;;;;;;5055488;28;19924;-88
2022/04/01 10:44:48;;;;;;;;;;;13.80;81.60;;;;;;5055424;28;20051;-88
2022/04/01 10:47:14;;;;;;;;;;;13.90;82.40;;;;;;5055688;28;19983;-88
2022/04/01 10:52:24;;;;;;;;;;;13.80;82.30;;;;;;5075313;28;19920;-89
2022/04/01 10:54:50;;;;;;;;;;;13.80;82.20;;;;;;5075497;28;19909;-89
2022/04/01 10:57:29;;;;;;;;;;;13.70;82.50;;;;;;5075473;28;19924;-89
2022/04/01 10:59:58;;;;;;;;;;;13.70;82.40;;;;;;5075427;28;19915;-89
2022/04/01 11:02:24;;;;;;;;;;;13.60;82.70;;;;;;5075070;28;19916;-89
2022/04/01 11:04:52;;;;;;;;;;;13.60;82.70;;;;;;5075035;28;19908;-88
2022/04/01 11:07:24;;;;;;;;;;;13.50;83.50;;;;;;5075268;28;20018;-88
2022/04/01 11:09:53;;;;;;;;;;;13.30;84.70;;;;;;5074687;28;19997;-88
2022/04/01 11:12:19;;;;;;;;;;;13.10;85.60;;;;;;5075233;28;19920;-89
2022/04/01 11:14:53;;;;;;;;;;;13.10;85.80;;;;;;5074657;28;19915;-88
2022/04/01 11:17:23;;;;;;;;;;;13.10;86.30;;;;;;5075034;28;19908;-88
2022/04/01 11:20:03;;;;;;;;;;;13.10;86.50;;;;;;5064731;28;20020;-88
2022/04/01 11:22:42;;;;;;;;;;;13.20;86.60;;;;;;5054739;28;19916;-88
2022/04/01 11:25:12;;;;;;;;;;;13.40;86.40;;;;;;5063163;28;19912;-89
2022/04/01 11:27:51;;;;;;;;;;;13.40;86.20;;;;;;5059071;28;19942;-88
2022/04/01 11:30:20;;;;;;;;;;;13.50;85.60;;;;;;5060332;28;20002;-88
2022/04/01 11:32:47;;;;;;;;;;;13.60;85.30;;;;;;5061887;28;19935;-88
2022/04/01 11:35:15;;;;;;;;;;;13.70;85.00;;;;;;5063337;28;19927;-89
2022/04/01 11:37:41;;;;;;;;;;;13.70;84.80;;;;;;5073953;28;20003;-89
2022/04/01 11:40:14;;;;;;;;;;;13.70;84.90;;;;;;5062505;28;19920;-88
2022/04/01 11:42:50;;;;;;;;;;;13.50;85.60;;;;;;5071813;28;20046;-89
2022/04/01 11:45:16;;;;;;;;;;;13.30;86.10;;;;;;5081433;28;20420;-89
2022/04/01 11:47:41;;;;;;;;;;;13.20;87.00;;;;;;5068585;28;20038;-89
2022/04/01 11:50:11;;;;;;;;;;;13.00;87.60;;;;;;5072216;28;19916;-89
2022/04/01 11:52:38;;;;;;;;;;;12.90;87.60;;;;;;5074369;28;19913;-89
2022/04/01 11:55:36;;;;;;;;;;;12.90;87.80;;;;;;5075443;28;19916;-89
2022/04/01 11:58:01;;;;;;;;;;;13.10;87.90;;;;;;5055948;28;19938;-89
2022/04/01 12:00:27;;;;;;;;;;;13.30;87.60;;;;;;5077538;28;19913;-89
2022/04/01 12:02:53;;;;;;;;;;;13.30;87.00;;;;;;5071312;28;20015;-89
2022/04/01 12:05:20;;;;;;;;;;;13.50;86.80;;;;;;5068345;28;19936;-89
2022/04/01 12:10:39;;;;;;;;;;;13.90;85.40;;;;;;5071933;28;20303;-89
2022/04/01 12:13:05;;;;;;;;;;;14.20;84.60;;;;;;5075017;28;20410;-88
2022/04/01 12:15:35;;;;;;;;;;;14.40;83.40;;;;;;5069152;28;19912;-89
2022/04/01 12:18:02;;;;;;;;;;;14.70;83.00;;;;;;5068293;28;19959;-89
2022/04/01 12:20:28;;;;;;;;;;;14.80;82.20;;;;;;5065053;28;20003;-89
2022/04/01 12:22:55;;;;;;;;;;;14.70;82.30;;;;;;5060817;28;20011;-89
2022/04/01 12:25:21;;;;;;;;;;;14.60;82.70;;;;;;5064291;28;19920;-89
2022/04/01 12:27:53;;;;;;;;;;;14.50;83.10;;;;;;5074360;28;19919;-89
2022/04/01 12:30:35;;;;;;;;;;;14.40;83.70;;;;;;5068963;28;19959;-89
2022/04/01 12:33:14;;;;;;;;;;;14.40;83.20;;;;;;5064239;28;20385;-88
2022/04/01 12:35:47;;;;;;;;;;;14.60;83.00;;;;;;5073014;28;19965;-88
2022/04/01 12:38:12;;;;;;;;;;;14.90;82.10;;;;;;5066210;28;19913;-88
2022/04/01 12:40:44;;;;;;;;;;;15.00;81.90;;;;;;5065957;28;19973;-89
2022/04/01 12:43:28;;;;;;;;;;;15.00;81.50;;;;;;5067654;28;19938;-88
2022/04/01 12:46:20;;;;;;;;;;;15.10;80.40;;;;;;5072099;28;19999;-89
2022/04/01 12:48:53;;;;;;;;;;;15.10;80.20;;;;;;5061235;28;19958;-88
2022/04/01 12:51:28;;;;;;;;;;;15.00;80.00;;;;;;5067903;28;20273;-89
2022/04/01 12:53:55;;;;;;;;;;;15.00;80.10;;;;;;5067598;28;19927;-89
2022/04/01 12:56:22;;;;;;;;;;;14.90;80.10;;;;;;5067031;28;19913;-89
2022/04/01 12:58:48;;;;;;;;;;;14.90;80.60;;;;;;5069929;28;19920;-88
2022/04/01 13:01:17;;;;;;;;;;;14.60;80.60;;;;;;5066307;28;20477;-88
2022/04/01 13:03:44;;;;;;;;;;;14.30;81.70;;;;;;5067870;28;19985;-88
2022/04/01 13:06:10;;;;;;;;;;;14.10;82.80;;;;;;5072557;28;19938;-88
2022/04/01 13:08:35;;;;;;;;;;;13.90;83.30;;;;;;5067832;28;20665;-88
2022/04/01 13:11:14;;;;;;;;;;;13.80;83.80;;;;;;5065437;28;19921;-88
2022/04/01 13:13:40;;;;;;;;;;;13.60;84.20;;;;;;5061768;28;19917;-88
2022/04/01 13:16:08;;;;;;;;;;;13.70;84.40;;;;;;5069870;28;19974;-88
2022/04/01 13:18:34;;;;;;;;;;;13.90;84.00;;;;;;5069683;28;19913;-89
2022/04/01 13:21:01;;;;;;;;;;;13.90;83.60;;;;;;5074338;28;20277;-88
2022/04/01 13:23:28;;;;;;;;;;;14.00;83.40;;;;;;5065377;28;19982;-88
2022/04/01 13:25:54;;;;;;;;;;;14.00;83.60;;;;;;5063838;28;20013;-88
2022/04/01 13:28:19;;;;;;;;;;;14.00;83.30;;;;;;5069316;28;20385;-89
2022/04/01 13:30:45;;;;;;;;;;;14.00;83.50;;;;;;5070045;28;20852;-88
2022/04/01 13:33:11;;;;;;;;;;;14.10;84.30;;;;;;5068749;28;19988;-88
2022/04/01 13:35:37;;;;;;;;;;;14.20;83.40;;;;;;5073070;28;19928;-88
2022/04/01 13:38:02;;;;;;;;;;;14.30;83.80;;;;;;5072186;28;19920;-90
2022/04/01 13:40:28;;;;;;;;;;;14.50;84.20;;;;;;5063426;28;19921;-90
2022/04/01 13:42:54;;;;;;;;;;;14.80;83.00;;;;;;5067006;28;20465;-89
2022/04/01 13:45:19;;;;;;;;;;;14.90;82.10;;;;;;5069357;28;19921;-89
2022/04/01 13:47:45;;;;;;;;;;;15.00;81.80;;;;;;5069438;28;19913;-89
2022/04/01 13:50:10;;;;;;;;;;;14.80;81.70;;;;;;5071134;28;19916;-88
2022/04/01 13:52:36;;;;;;;;;;;14.50;81.30;;;;;;5066936;28;19912;-89
2022/04/01 13:55:02;;;;;;;;;;;14.30;82.20;;;;;;5065809;28;20389;-89
2022/04/01 13:57:28;;;;;;;;;;;14.50;82.70;;;;;;5064571;28;19912;-89
2022/04/01 13:59:54;;;;;;;;;;;14.90;82.20;;;;;;5066676;28;19944;-89
2022/04/01 14:02:19;;;;;;;;;;;15.30;80.90;;;;;;5066747;28;19920;-89
2022/04/01 14:04:45;;;;;;;;;;;15.60;79.40;;;;;;5067667;28;19978;-89
2022/04/01 14:07:10;;;;;;;;;;;16.10;78.60;;;;;;5069139;28;19978;-89
2022/04/01 14:09:40;;;;;;;;;;;16.20;77.20;;;;;;5076623;28;20409;-89
2022/04/01 14:12:07;;;;;;;;;;;16.30;76.40;;;;;;5065203;28;19965;-90
2022/04/01 14:14:34;;;;;;;;;;;16.40;75.40;;;;;;5067297;28;19916;-89
2022/04/01 14:17:00;;;;;;;;;;;16.20;75.20;;;;;;5075121;28;19981;-89
2022/04/01 14:19:26;;;;;;;;;;;16.00;76.60;;;;;;5070849;28;19959;-89
2022/04/01 14:21:51;;;;;;;;;;;15.80;76.70;;;;;;5070169;28;19918;-89
2022/04/01 14:24:17;;;;;;;;;;;15.80;76.30;;;;;;5075501;28;20381;-89
2022/04/01 14:26:42;;;;;;;;;;;15.80;77.10;;;;;;5072884;28;19916;-89
2022/04/01 14:31:59;;;;;;;;;;;16.30;74.40;;;;;;5073853;28;19973;-89
2022/04/01 14:34:26;;;;;;;;;;;16.70;72.30;;;;;;5067057;28;20000;-89
2022/04/01 14:36:52;;;;;;;;;;;17.10;69.90;;;;;;5075746;28;19916;-89
2022/04/01 14:39:18;;;;;;;;;;;17.80;68.90;;;;;;5071399;28;19912;-89
2022/04/01 14:41:44;;;;;;;;;;;18.40;66.30;;;;;;5073712;28;20022;-90
2022/04/01 14:44:10;;;;;;;;;;;18.90;65.30;;;;;;5084617;28;19912;-89
2022/04/01 14:46:37;;;;;;;;;;;19.20;62.00;;;;;;5072527;28;19966;-89
2022/04/01 14:49:03;;;;;;;;;;;19.30;60.50;;;;;;5066994;28;19913;-89